Aviation Digital Data Service (ADDS)

Output produced by METARs form (0311 UTC 26 August 2016)
found at http://aviationweather.gov/adds/metars/
 
KBDL 260202Z 2602/2706 19007KT P6SM FEW030 FEW045 BKN080 
     FM260700 20005KT 5SM BR VCSH BKN030 
     FM261200 21006KT P6SM VCSH BKN035 
     FM261500 25006KT P6SM VCSH BKN040 
     FM261900 29006KT P6SM SCT080